Time;durP1;ratioP1;P1;durP2;ratioP2;P2;SDS_P1;SDS_P2;PMS_P1;PMS_P2;Temp;Humidity;BMP_temperature;BMP_pressure;BME280_temperature;BME280_humidity;BME280_pressure;Samples;Min_cycle;Max_cycle;Signal;HPM_P1;HPM_P2
2021/06/03 00:01:02;;;;;;;2.22;1.40;;;21.10;51.30;;;;;;2071341;28;20034;-85
2021/06/03 00:02:06;;;;;;;1.88;1.23;;;21.10;52.00;;;;;;2070099;28;20046;-85
2021/06/03 00:03:07;;;;;;;2.05;1.23;;;21.10;51.50;;;;;;2065626;28;20109;-84
2021/06/03 00:04:09;;;;;;;2.42;1.30;;;21.10;51.50;;;;;;2072710;28;20036;-84
2021/06/03 00:05:10;;;;;;;1.98;1.30;;;21.10;51.70;;;;;;2063178;28;20026;-85
2021/06/03 00:06:10;;;;;;;1.83;1.20;;;21.10;51.80;;;;;;2066728;28;20054;-85
2021/06/03 00:07:12;;;;;;;2.30;1.27;;;21.10;52.40;;;;;;2078430;28;20030;-84
2021/06/03 00:08:15;;;;;;;2.25;1.40;;;21.10;52.00;;;;;;2076300;28;20120;-86
2021/06/03 00:09:16;;;;;;;2.00;1.30;;;21.00;52.10;;;;;;2072582;28;20025;-84
2021/06/03 00:10:18;;;;;;;2.17;1.30;;;21.00;52.20;;;;;;2081986;28;20081;-85
2021/06/03 00:11:19;;;;;;;2.40;1.30;;;21.00;53.00;;;;;;2069375;28;20030;-84
2021/06/03 00:12:19;;;;;;;2.33;1.15;;;20.90;52.40;;;;;;2065856;28;20080;-85
2021/06/03 00:13:22;;;;;;;1.98;1.23;;;20.90;52.50;;;;;;2077176;28;20029;-85
2021/06/03 00:14:24;;;;;;;1.85;1.20;;;20.90;52.60;;;;;;2072875;28;20098;-85
2021/06/03 00:15:25;;;;;;;2.42;1.25;;;20.80;52.70;;;;;;2066258;28;20050;-84
2021/06/03 00:16:26;;;;;;;2.22;1.20;;;20.80;52.70;;;;;;2070415;28;20030;-84
2021/06/03 00:17:27;;;;;;;2.25;1.35;;;20.80;52.90;;;;;;2080055;28;20048;-84
2021/06/03 00:18:28;;;;;;;2.45;1.20;;;20.70;52.90;;;;;;2081536;28;20069;-85
2021/06/03 00:19:29;;;;;;;1.85;1.20;;;20.70;53.00;;;;;;2085773;28;20479;-85
2021/06/03 00:20:32;;;;;;;1.73;1.17;;;20.70;53.10;;;;;;2078247;28;20022;-85
2021/06/03 00:21:33;;;;;;;2.10;1.20;;;20.70;53.20;;;;;;2076580;28;20075;-85
2021/06/03 00:22:34;;;;;;;2.40;1.30;;;20.70;53.20;;;;;;2076999;28;20042;-85
2021/06/03 00:23:35;;;;;;;2.05;1.23;;;20.70;53.20;;;;;;2067681;28;20096;-85
2021/06/03 00:24:36;;;;;;;2.80;1.25;;;20.70;53.30;;;;;;2071898;28;20033;-85
2021/06/03 00:25:37;;;;;;;1.40;1.10;;;20.70;53.40;;;;;;2090242;28;20033;-85
2021/06/03 00:26:37;;;;;;;1.50;1.20;;;20.70;53.40;;;;;;2082782;28;20025;-85
2021/06/03 00:27:38;;;;;;;2.30;1.20;;;20.70;53.50;;;;;;2068427;28;20026;-85
2021/06/03 00:28:39;;;;;;;2.00;1.20;;;20.70;53.60;;;;;;2065167;28;20031;-85
2021/06/03 00:29:40;;;;;;;2.15;1.30;;;20.60;53.60;;;;;;2072093;28;20034;-86
2021/06/03 00:30:40;;;;;;;1.80;1.30;;;20.60;53.70;;;;;;2075100;28;20029;-85
2021/06/03 00:31:42;;;;;;;2.35;1.40;;;20.60;53.70;;;;;;2073632;28;20064;-85
2021/06/03 00:32:43;;;;;;;2.05;1.30;;;20.60;53.70;;;;;;2080895;28;20086;-84
2021/06/03 00:33:44;;;;;;;2.72;1.23;;;20.60;53.90;;;;;;2076471;28;20487;-85
2021/06/03 00:34:44;;;;;;;1.95;1.27;;;20.60;53.90;;;;;;2066865;28;20130;-84
2021/06/03 00:35:45;;;;;;;1.73;1.20;;;20.50;54.00;;;;;;2060825;28;20035;-84
2021/06/03 00:36:46;;;;;;;2.15;1.40;;;20.50;54.10;;;;;;2064682;28;20062;-84
2021/06/03 00:37:48;;;;;;;2.38;1.40;;;20.50;54.20;;;;;;2064536;28;20032;-85
2021/06/03 00:38:49;;;;;;;1.85;1.02;;;20.40;54.20;;;;;;2072725;28;20492;-84
2021/06/03 00:39:50;;;;;;;2.17;1.30;;;20.40;54.20;;;;;;2070345;28;20056;-84
2021/06/03 00:40:50;;;;;;;2.58;1.42;;;20.40;54.40;;;;;;2065305;28;20041;-84
2021/06/03 00:41:51;;;;;;;2.30;1.20;;;20.40;54.40;;;;;;2071745;28;20030;-84
2021/06/03 00:42:52;;;;;;;1.70;1.10;;;20.40;54.40;;;;;;2076743;28;20029;-85
2021/06/03 00:43:52;;;;;;;2.00;1.25;;;20.40;54.40;;;;;;2076651;28;20022;-85
2021/06/03 00:44:53;;;;;;;2.20;1.48;;;20.40;54.50;;;;;;2068205;28;20567;-85
2021/06/03 00:45:54;;;;;;;2.67;1.52;;;20.40;54.60;;;;;;2064972;28;20449;-85
2021/06/03 00:46:54;;;;;;;3.33;1.50;;;20.40;54.60;;;;;;2056300;28;20812;-84
2021/06/03 00:47:55;;;;;;;2.20;1.27;;;20.40;54.80;;;;;;2055836;28;20038;-85
2021/06/03 00:48:56;;;;;;;2.30;1.40;;;20.40;55.10;;;;;;2064906;28;20042;-85
2021/06/03 00:49:57;;;;;;;1.90;1.40;;;20.40;55.20;;;;;;2079901;28;20060;-85
2021/06/03 00:51:01;;;;;;;2.13;1.40;;;20.40;55.30;;;;;;2056625;28;20042;-85
2021/06/03 00:52:02;;;;;;;2.33;1.40;;;20.40;55.50;;;;;;2065767;28;20022;-85
2021/06/03 00:53:08;;;;;;;3.17;1.40;;;20.30;55.70;;;;;;2057680;28;20038;-85
2021/06/03 00:54:09;;;;;;;2.33;1.60;;;20.30;56.00;;;;;;2057439;28;20030;-85
2021/06/03 00:55:10;;;;;;;2.67;1.60;;;20.30;56.10;;;;;;2063428;28;20038;-85
2021/06/03 00:56:11;;;;;;;3.05;1.70;;;20.30;56.20;;;;;;2069770;28;20026;-85
2021/06/03 00:57:12;;;;;;;3.58;1.65;;;20.30;56.30;;;;;;2080203;28;20026;-85
2021/06/03 00:58:13;;;;;;;2.97;1.50;;;20.30;56.50;;;;;;2068017;28;20093;-85
2021/06/03 00:59:14;;;;;;;2.83;1.60;;;20.30;56.50;;;;;;2064992;28;20030;-86
2021/06/03 01:00:16;;;;;;;3.47;1.63;;;20.30;56.60;;;;;;2073017;28;20037;-86
2021/06/03 01:01:17;;;;;;;3.55;1.77;;;20.30;56.70;;;;;;2073004;28;20416;-85
2021/06/03 01:02:17;;;;;;;3.20;1.73;;;20.20;56.60;;;;;;2072596;28;20033;-86
2021/06/03 01:03:20;;;;;;;2.55;1.67;;;20.20;56.70;;;;;;2068202;28;20109;-86
2021/06/03 01:04:21;;;;;;;2.60;1.70;;;20.30;56.80;;;;;;2069733;28;20120;-86
2021/06/03 01:05:25;;;;;;;3.35;1.85;;;20.20;56.80;;;;;;2064735;28;20026;-86
2021/06/03 01:06:26;;;;;;;2.42;1.52;;;20.20;56.80;;;;;;2067547;28;20057;-86
2021/06/03 01:07:27;;;;;;;2.78;1.67;;;20.20;56.90;;;;;;2067943;28;20026;-86
2021/06/03 01:08:56;;;;;;;2.13;1.55;;;20.20;56.90;;;;;;2065038;28;20403;-86
2021/06/03 01:10:08;;;;;;;2.28;1.38;;;20.20;56.90;;;;;;2076591;28;20048;-86
2021/06/03 01:11:23;;;;;;;3.00;1.60;;;20.20;57.00;;;;;;2074317;28;20423;-86
2021/06/03 01:12:51;;;;;;;2.30;1.63;;;20.20;57.00;;;;;;2081617;28;20034;-86
2021/06/03 01:14:07;;;;;;;2.28;1.50;;;20.20;57.00;;;;;;2076973;28;20113;-86
2021/06/03 01:15:09;;;;;;;2.20;1.35;;;20.20;56.90;;;;;;2077821;28;20026;-85
2021/06/03 01:16:11;;;;;;;2.97;1.70;;;20.20;57.00;;;;;;2076347;28;20026;-85
2021/06/03 01:17:12;;;;;;;2.83;1.50;;;20.20;57.70;;;;;;2075087;28;20408;-85
2021/06/03 01:18:14;;;;;;;2.15;1.58;;;20.10;57.10;;;;;;2066658;28;20112;-86
2021/06/03 01:19:20;;;;;;;3.42;1.50;;;20.10;57.10;;;;;;2073932;28;20028;-85
2021/06/03 01:20:21;;;;;;;2.60;1.40;;;20.20;57.30;;;;;;2083679;28;20516;-85
2021/06/03 01:21:29;;;;;;;2.53;1.38;;;20.20;57.90;;;;;;2072566;28;20495;-85
2021/06/03 01:22:39;;;;;;;2.60;1.50;;;20.10;57.40;;;;;;2066329;28;20415;-86
2021/06/03 01:23:47;;;;;;;2.97;1.33;;;20.10;57.50;;;;;;2078594;28;20533;-85
2021/06/03 01:24:53;;;;;;;2.70;1.52;;;20.10;57.60;;;;;;2081216;28;20061;-85
2021/06/03 01:25:54;;;;;;;2.15;1.25;;;20.10;57.60;;;;;;2073798;28;21448;-85
2021/06/03 01:27:04;;;;;;;1.90;1.40;;;20.10;57.70;;;;;;2075840;28;20045;-85
2021/06/03 01:28:06;;;;;;;3.25;1.50;;;20.10;57.90;;;;;;2077661;28;20472;-85
2021/06/03 01:29:07;;;;;;;1.92;1.30;;;20.10;57.80;;;;;;2076919;28;20033;-86
2021/06/03 01:30:11;;;;;;;1.98;1.30;;;20.10;57.90;;;;;;2072523;28;20030;-86
2021/06/03 01:31:13;;;;;;;2.28;1.30;;;20.00;58.00;;;;;;2078881;28;20121;-86
2021/06/03 01:32:15;;;;;;;2.42;1.40;;;20.00;58.00;;;;;;2078331;28;20404;-86
2021/06/03 01:33:20;;;;;;;1.85;1.25;;;20.00;58.10;;;;;;2071231;28;20034;-86
2021/06/03 01:34:24;;;;;;;2.38;1.30;;;20.00;58.20;;;;;;2072210;28;20396;-86
2021/06/03 01:35:29;;;;;;;2.28;1.40;;;20.10;58.30;;;;;;2072420;28;20028;-86
2021/06/03 01:36:31;;;;;;;1.95;1.30;;;20.00;58.40;;;;;;2072617;28;20124;-86
2021/06/03 01:37:31;;;;;;;1.90;1.27;;;20.00;58.40;;;;;;2070563;28;20028;-85
2021/06/03 01:38:36;;;;;;;1.77;1.30;;;20.00;58.50;;;;;;2063235;28;20500;-86
2021/06/03 01:39:38;;;;;;;2.00;1.40;;;20.00;58.60;;;;;;2067487;28;20464;-86
2021/06/03 01:40:41;;;;;;;2.00;1.30;;;20.00;58.80;;;;;;2063838;28;20448;-86
2021/06/03 01:41:43;;;;;;;2.78;1.45;;;20.00;58.90;;;;;;2072468;28;20025;-86
2021/06/03 01:42:45;;;;;;;2.80;1.42;;;19.90;58.90;;;;;;2072140;28;20030;-86
2021/06/03 01:43:47;;;;;;;2.35;1.35;;;19.90;59.00;;;;;;2073050;28;20037;-86
2021/06/03 01:44:49;;;;;;;2.90;1.30;;;19.90;59.10;;;;;;2075668;28;20033;-86
2021/06/03 01:45:51;;;;;;;1.73;1.27;;;19.90;59.20;;;;;;2075994;28;20088;-86
2021/06/03 01:46:53;;;;;;;2.03;1.30;;;19.90;59.30;;;;;;2072609;28;20527;-85
2021/06/03 01:47:55;;;;;;;1.95;1.30;;;19.90;59.30;;;;;;2069045;28;20026;-86
2021/06/03 01:48:56;;;;;;;2.10;1.30;;;19.90;59.40;;;;;;2061728;28;20035;-86
2021/06/03 01:49:58;;;;;;;1.83;1.17;;;19.90;59.50;;;;;;2060217;28;20041;-86
2021/06/03 01:51:01;;;;;;;2.15;1.40;;;19.90;59.50;;;;;;2064994;28;20441;-86
2021/06/03 01:52:04;;;;;;;2.00;1.38;;;19.90;59.60;;;;;;2078597;28;20060;-86
2021/06/03 01:53:05;;;;;;;2.30;1.10;;;19.90;59.70;;;;;;2077455;28;20091;-85
2021/06/03 01:54:07;;;;;;;1.83;1.30;;;19.90;59.70;;;;;;2067930;28;20026;-86
2021/06/03 01:55:09;;;;;;;2.33;1.40;;;19.90;59.70;;;;;;2072425;28;20029;-86
2021/06/03 01:56:15;;;;;;;2.08;1.20;;;19.80;59.80;;;;;;2056065;28;20537;-86
2021/06/03 01:57:16;;;;;;;1.65;1.10;;;19.80;59.90;;;;;;2070468;28;20022;-87
2021/06/03 01:58:17;;;;;;;2.42;1.40;;;19.90;60.00;;;;;;2064951;28;20048;-86
2021/06/03 01:59:17;;;;;;;1.75;1.30;;;19.80;60.00;;;;;;2064458;28;20488;-86
2021/06/03 02:00:20;;;;;;;2.13;1.30;;;19.80;60.10;;;;;;2056474;28;20082;-86
2021/06/03 02:01:21;;;;;;;2.00;1.20;;;19.80;60.10;;;;;;2060090;28;20469;-86
2021/06/03 02:02:22;;;;;;;1.85;1.35;;;19.80;60.20;;;;;;2067428;28;20033;-86
2021/06/03 02:03:24;;;;;;;1.70;1.15;;;19.80;60.30;;;;;;2071754;28;20112;-85
2021/06/03 02:04:24;;;;;;;2.25;1.27;;;19.80;60.30;;;;;;2073496;28;20045;-85
2021/06/03 02:05:25;;;;;;;2.38;1.27;;;19.80;60.40;;;;;;2082544;28;20029;-85
2021/06/03 02:06:26;;;;;;;1.90;1.13;;;19.80;60.50;;;;;;2080269;28;20018;-84
2021/06/03 02:07:26;;;;;;;1.60;1.25;;;19.80;60.60;;;;;;2063945;28;20038;-84
2021/06/03 02:08:27;;;;;;;2.65;1.48;;;19.70;60.60;;;;;;2063917;28;20459;-84
2021/06/03 02:09:28;;;;;;;2.13;1.30;;;19.70;60.60;;;;;;2072302;28;20061;-85
2021/06/03 02:10:29;;;;;;;2.17;1.25;;;19.70;61.40;;;;;;2079772;28;20063;-86
2021/06/03 02:11:29;;;;;;;1.73;1.20;;;19.70;60.70;;;;;;2059554;28;20066;-85
2021/06/03 02:12:33;;;;;;;2.30;1.27;;;19.70;60.80;;;;;;2065810;28;20022;-85
2021/06/03 02:13:40;;;;;;;1.95;1.20;;;19.60;60.80;;;;;;2073147;28;20034;-85
2021/06/03 02:14:41;;;;;;;1.80;1.17;;;19.70;60.90;;;;;;2073646;28;20018;-86
2021/06/03 02:16:12;;;;;;;1.50;1.02;;;19.60;60.90;;;;;;2077445;28;20514;-85
2021/06/03 02:17:20;;;;;;;2.10;1.20;;;19.70;60.90;;;;;;2074984;28;20048;-83
2021/06/03 02:18:27;;;;;;;2.55;1.38;;;19.60;61.00;;;;;;2072354;28;20511;-84
2021/06/03 02:19:38;;;;;;;1.52;1.02;;;19.60;61.10;;;;;;2078231;28;20541;-84
2021/06/03 02:20:41;;;;;;;;;;;19.60;61.10;;;;;;2080678;28;20047;-85
2021/06/03 02:21:45;;;;;;;2.92;1.20;;;19.60;61.00;;;;;;2071917;28;19996;-84
2021/06/03 02:22:49;;;;;;;1.17;0.95;;;19.50;61.00;;;;;;2065400;28;20034;-84
2021/06/03 02:23:53;;;;;;;3.65;1.05;;;19.50;61.10;;;;;;2073529;28;20577;-84
2021/06/03 02:24:55;;;;;;;1.50;1.05;;;19.50;61.20;;;;;;2077392;28;20056;-84
2021/06/03 02:26:01;;;;;;;2.65;1.40;;;19.50;61.30;;;;;;2074587;28;20511;-84
2021/06/03 02:27:02;;;;;;;1.70;1.00;;;19.50;61.30;;;;;;2077100;28;20026;-84
2021/06/03 02:28:04;;;;;;;1.90;1.30;;;19.50;61.40;;;;;;2072066;28;20038;-84
2021/06/03 02:29:05;;;;;;;2.47;1.58;;;19.50;61.50;;;;;;2076345;28;20116;-84
2021/06/03 02:30:08;;;;;;;1.88;1.30;;;19.50;61.50;;;;;;2087881;28;20034;-84
2021/06/03 02:31:09;;;;;;;1.73;1.13;;;19.50;61.50;;;;;;2071042;28;20117;-84
2021/06/03 02:32:11;;;;;;;2.83;1.10;;;19.50;61.60;;;;;;2068040;28;20519;-84
2021/06/03 02:33:12;;;;;;;1.95;1.20;;;19.50;61.70;;;;;;2073399;28;20026;-84
2021/06/03 02:34:13;;;;;;;2.22;1.10;;;19.50;61.70;;;;;;2071693;28;20030;-84
2021/06/03 02:35:14;;;;;;;1.55;0.90;;;19.50;61.70;;;;;;2077322;28;20068;-85
2021/06/03 02:36:16;;;;;;;1.95;1.30;;;19.50;62.30;;;;;;2073757;28;20036;-84
2021/06/03 02:37:17;;;;;;;2.55;1.05;;;19.50;61.70;;;;;;2063021;28;20040;-84
2021/06/03 02:38:26;;;;;;;1.90;1.20;;;19.50;61.80;;;;;;2071628;28;20172;-84
2021/06/03 02:39:27;;;;;;;1.60;1.10;;;19.50;61.90;;;;;;2079946;28;20032;-84
2021/06/03 02:40:30;;;;;;;2.83;1.27;;;19.50;61.90;;;;;;2064422;28;20038;-85
2021/06/03 02:41:32;;;;;;;1.52;1.17;;;19.50;62.00;;;;;;2067561;28;20488;-84
2021/06/03 02:42:34;;;;;;;2.42;1.20;;;19.50;62.10;;;;;;2071060;28;20416;-84
2021/06/03 02:43:36;;;;;;;1.83;1.20;;;19.50;62.10;;;;;;2063493;28;20122;-84
2021/06/03 02:44:39;;;;;;;1.77;1.23;;;19.50;62.90;;;;;;2064464;28;20038;-85
2021/06/03 02:45:39;;;;;;;1.63;1.00;;;19.40;62.30;;;;;;2068019;28;20014;-85
2021/06/03 02:46:40;;;;;;;1.92;1.15;;;19.40;62.40;;;;;;2071708;28;20123;-85
2021/06/03 02:47:41;;;;;;;1.80;1.02;;;19.40;62.50;;;;;;2062939;28;20033;-84
2021/06/03 02:48:42;;;;;;;1.35;1.20;;;19.40;62.50;;;;;;2070163;28;20473;-84
2021/06/03 02:49:43;;;;;;;1.50;1.15;;;19.40;62.60;;;;;;2063939;28;20026;-85
2021/06/03 02:50:44;;;;;;;2.03;1.20;;;19.40;62.60;;;;;;2063213;28;20030;-84
2021/06/03 02:51:45;;;;;;;1.40;1.02;;;19.40;62.70;;;;;;2063973;28;20022;-84
2021/06/03 02:52:46;;;;;;;2.55;1.30;;;19.40;62.70;;;;;;2062575;28;20057;-85
2021/06/03 02:53:47;;;;;;;1.60;1.13;;;19.40;62.80;;;;;;2063478;28;20154;-84
2021/06/03 02:54:48;;;;;;;1.65;1.10;;;19.40;62.90;;;;;;2062856;28;20057;-84
2021/06/03 02:55:49;;;;;;;2.17;1.38;;;19.40;62.90;;;;;;2057643;28;20030;-85
2021/06/03 02:56:49;;;;;;;1.90;1.30;;;19.40;63.00;;;;;;2067172;28;20033;-84
2021/06/03 02:57:51;;;;;;;1.70;1.15;;;19.40;63.10;;;;;;2063241;28;20500;-84
2021/06/03 02:58:51;;;;;;;1.48;1.02;;;19.40;63.10;;;;;;2063396;28;20117;-84
2021/06/03 02:59:52;;;;;;;2.30;1.10;;;19.40;63.10;;;;;;2078986;28;20415;-85
2021/06/03 03:00:53;;;;;;;1.90;1.20;;;19.30;63.20;;;;;;2063949;28;20394;-84
2021/06/03 03:01:54;;;;;;;2.13;1.20;;;19.30;63.30;;;;;;2060725;28;20072;-84
2021/06/03 03:02:55;;;;;;;2.25;1.30;;;19.30;63.30;;;;;;2061517;28;20038;-85
2021/06/03 03:03:55;;;;;;;1.73;1.17;;;19.30;63.40;;;;;;2062109;28;20033;-84
2021/06/03 03:04:56;;;;;;;2.35;1.38;;;19.30;64.20;;;;;;2063750;28;20039;-84
2021/06/03 03:05:57;;;;;;;2.58;1.27;;;19.30;63.50;;;;;;2071688;28;20435;-84
2021/06/03 03:06:58;;;;;;;1.70;1.17;;;19.20;63.50;;;;;;2074513;28;20419;-85
2021/06/03 03:07:58;;;;;;;2.22;1.13;;;19.30;63.60;;;;;;2075352;28;20082;-84
2021/06/03 03:08:59;;;;;;;2.15;1.27;;;19.30;64.30;;;;;;2071541;28;20037;-85
2021/06/03 03:10:03;;;;;;;2.13;1.23;;;19.30;63.80;;;;;;2062748;28;20026;-84
2021/06/03 03:11:04;;;;;;;2.33;1.30;;;19.30;63.90;;;;;;2060907;28;20034;-85
2021/06/03 03:12:05;;;;;;;1.30;1.00;;;19.20;63.90;;;;;;2071647;28;20112;-85
2021/06/03 03:13:07;;;;;;;1.40;1.10;;;19.20;64.00;;;;;;2071704;28;20045;-84
2021/06/03 03:14:08;;;;;;;2.53;1.40;;;19.20;64.10;;;;;;2070597;28;20037;-84
2021/06/03 03:15:10;;;;;;;1.73;1.25;;;19.20;64.10;;;;;;2058480;28;20038;-84
2021/06/03 03:16:11;;;;;;;1.73;1.38;;;19.20;64.20;;;;;;2063684;28;20035;-85
2021/06/03 03:17:11;;;;;;;1.42;1.02;;;19.20;64.20;;;;;;2054052;28;20555;-84
2021/06/03 03:18:12;;;;;;;2.47;1.25;;;19.20;64.30;;;;;;2055368;28;20050;-84
2021/06/03 03:19:13;;;;;;;2.05;1.10;;;19.20;64.30;;;;;;2077032;28;20025;-85
2021/06/03 03:20:15;;;;;;;1.85;1.30;;;19.20;64.40;;;;;;2075710;28;20026;-85
2021/06/03 03:21:16;;;;;;;2.08;1.23;;;19.20;64.50;;;;;;2070183;28;20559;-85
2021/06/03 03:22:16;;;;;;;2.17;1.30;;;19.20;64.50;;;;;;2065786;28;20035;-85
2021/06/03 03:23:17;;;;;;;2.65;1.30;;;19.20;64.60;;;;;;2064751;28;20082;-86
2021/06/03 03:24:18;;;;;;;2.35;1.30;;;19.20;64.60;;;;;;2064829;28;20423;-84
2021/06/03 03:25:19;;;;;;;2.17;1.25;;;19.20;65.20;;;;;;2064791;28;20058;-84
2021/06/03 03:26:20;;;;;;;3.20;1.50;;;19.20;64.60;;;;;;2076309;28;20029;-85
2021/06/03 03:27:21;;;;;;;2.08;1.10;;;19.20;64.70;;;;;;2063021;28;20125;-84
2021/06/03 03:28:21;;;;;;;1.50;1.02;;;19.20;64.70;;;;;;2060771;28;20053;-84
2021/06/03 03:29:22;;;;;;;1.73;1.20;;;19.20;64.80;;;;;;2055657;28;20018;-85
2021/06/03 03:30:26;;;;;;;2.08;1.30;;;19.10;64.90;;;;;;2059248;28;20577;-85
2021/06/03 03:31:27;;;;;;;2.45;1.30;;;19.10;64.90;;;;;;2076031;28;20014;-84
2021/06/03 03:32:27;;;;;;;1.52;1.10;;;19.10;65.00;;;;;;2071050;28;20041;-84
2021/06/03 03:33:28;;;;;;;2.30;1.38;;;19.10;65.10;;;;;;2046362;28;20038;-84
2021/06/03 03:34:29;;;;;;;1.98;1.10;;;19.10;65.10;;;;;;2063661;28;20026;-85
2021/06/03 03:35:29;;;;;;;1.95;1.30;;;19.10;65.20;;;;;;2083655;28;20457;-85
2021/06/03 03:36:31;;;;;;;2.28;1.40;;;19.10;65.20;;;;;;2076717;28;20443;-84
2021/06/03 03:37:31;;;;;;;2.78;1.27;;;19.10;65.20;;;;;;2075944;28;20052;-84
2021/06/03 03:38:32;;;;;;;2.42;1.38;;;19.00;65.30;;;;;;2073425;28;20060;-85
2021/06/03 03:39:33;;;;;;;1.60;1.30;;;19.10;65.40;;;;;;2070691;28;20030;-85
2021/06/03 03:40:33;;;;;;;2.20;1.30;;;19.00;65.40;;;;;;2071669;28;20081;-85
2021/06/03 03:41:34;;;;;;;1.88;1.30;;;19.00;65.40;;;;;;2063289;28;20129;-84
2021/06/03 03:42:36;;;;;;;1.70;1.33;;;19.00;65.50;;;;;;2065308;28;20393;-85
2021/06/03 03:43:36;;;;;;;2.03;1.42;;;19.00;66.20;;;;;;2074650;28;20072;-84
2021/06/03 03:44:37;;;;;;;2.33;1.20;;;19.00;65.60;;;;;;2076738;28;20037;-84
2021/06/03 03:45:38;;;;;;;1.85;1.17;;;19.00;65.60;;;;;;2074145;28;20058;-85
2021/06/03 03:46:39;;;;;;;1.45;1.10;;;19.00;65.80;;;;;;2078796;28;20029;-85
2021/06/03 03:47:40;;;;;;;2.40;1.40;;;19.00;65.80;;;;;;2073480;28;20041;-85
2021/06/03 03:48:41;;;;;;;1.90;1.35;;;19.00;65.80;;;;;;2072920;28;20030;-85
2021/06/03 03:49:41;;;;;;;1.92;1.25;;;19.00;65.90;;;;;;2068698;28;20101;-85
2021/06/03 03:50:42;;;;;;;1.73;1.20;;;19.00;65.90;;;;;;2078756;28;20104;-85
2021/06/03 03:51:43;;;;;;;2.08;1.40;;;19.00;66.00;;;;;;2065571;28;20453;-85
2021/06/03 03:52:44;;;;;;;2.92;1.52;;;19.00;66.00;;;;;;2056416;28;20118;-85
2021/06/03 03:53:45;;;;;;;2.03;1.40;;;19.00;66.10;;;;;;2064436;28;20030;-84
2021/06/03 03:54:45;;;;;;;2.65;1.50;;;19.00;66.20;;;;;;2072232;28;20532;-84
2021/06/03 03:55:46;;;;;;;2.65;1.45;;;18.90;66.10;;;;;;2061911;28;20039;-85
2021/06/03 03:56:47;;;;;;;2.10;1.35;;;19.00;66.20;;;;;;2065134;28;20117;-83
2021/06/03 03:57:49;;;;;;;2.05;1.48;;;18.90;66.10;;;;;;2062842;28;20162;-84
2021/06/03 03:58:50;;;;;;;2.05;1.40;;;18.90;66.10;;;;;;2073002;28;20026;-84
2021/06/03 03:59:51;;;;;;;1.90;1.45;;;18.90;66.30;;;;;;2065081;28;20023;-85
2021/06/03 04:00:51;;;;;;;2.10;1.40;;;18.90;66.30;;;;;;2072963;28;20133;-84
2021/06/03 04:01:53;;;;;;;1.70;1.27;;;18.90;66.40;;;;;;2069678;28;20069;-85
2021/06/03 04:02:55;;;;;;;1.92;1.30;;;18.90;66.40;;;;;;2064526;28;20113;-84
2021/06/03 04:03:56;;;;;;;2.33;1.60;;;18.90;66.50;;;;;;2073219;28;20121;-84
2021/06/03 04:04:56;;;;;;;3.05;1.60;;;18.90;66.60;;;;;;2078823;28;20072;-84
2021/06/03 04:05:57;;;;;;;2.28;1.27;;;18.90;66.60;;;;;;2083388;28;20450;-85
2021/06/03 04:06:58;;;;;;;1.75;1.30;;;18.90;66.70;;;;;;2078947;28;20058;-84
2021/06/03 04:07:59;;;;;;;1.67;1.30;;;18.90;66.70;;;;;;2078440;28;20498;-85
2021/06/03 04:09:00;;;;;;;2.00;1.25;;;18.90;66.70;;;;;;2070418;28;20042;-84
2021/06/03 04:10:00;;;;;;;2.47;1.50;;;18.90;66.80;;;;;;2061716;28;20053;-85
2021/06/03 04:11:01;;;;;;;2.00;1.50;;;18.80;66.80;;;;;;2073024;28;20045;-85
2021/06/03 04:12:02;;;;;;;1.65;1.40;;;18.80;66.90;;;;;;2069666;28;20058;-84
2021/06/03 04:13:03;;;;;;;1.75;1.42;;;18.90;67.00;;;;;;2076312;28;20046;-85
2021/06/03 04:14:04;;;;;;;2.33;1.58;;;18.80;67.00;;;;;;2066903;28;20691;-84
2021/06/03 04:15:07;;;;;;;2.03;1.30;;;18.90;67.50;;;;;;2072789;28;20057;-84
2021/06/03 04:16:08;;;;;;;2.05;1.30;;;18.90;67.20;;;;;;2068965;28;20504;-85
2021/06/03 04:17:08;;;;;;;1.98;1.30;;;18.80;67.10;;;;;;2074049;28;20265;-85
2021/06/03 04:18:09;;;;;;;2.15;1.35;;;18.80;67.20;;;;;;2074558;28;20069;-85
2021/06/03 04:19:10;;;;;;;2.05;1.50;;;18.80;67.20;;;;;;2066501;28;20392;-85
2021/06/03 04:20:18;;;;;;;2.17;1.23;;;18.80;67.30;;;;;;2060775;28;20259;-84
2021/06/03 04:21:19;;;;;;;2.72;1.30;;;18.80;67.30;;;;;;2066076;28;20109;-84
2021/06/03 04:22:20;;;;;;;2.25;1.65;;;18.80;67.40;;;;;;2059810;28;20027;-85
2021/06/03 04:23:20;;;;;;;1.75;1.30;;;18.80;67.40;;;;;;2064609;28;20123;-83
2021/06/03 04:24:21;;;;;;;2.00;1.40;;;18.80;67.50;;;;;;2066061;28;20128;-84
2021/06/03 04:25:22;;;;;;;2.08;1.60;;;18.80;67.60;;;;;;2070516;28;20441;-83
2021/06/03 04:26:23;;;;;;;2.35;1.58;;;18.80;67.60;;;;;;2078580;28;20029;-85
2021/06/03 04:27:23;;;;;;;2.03;1.48;;;18.80;67.70;;;;;;2078597;28;20075;-85
2021/06/03 04:28:24;;;;;;;1.95;1.40;;;18.80;67.80;;;;;;2065266;28;20534;-85
2021/06/03 04:29:25;;;;;;;2.75;1.40;;;18.80;67.80;;;;;;2064481;28;20129;-84
2021/06/03 04:30:26;;;;;;;3.03;1.38;;;18.80;67.80;;;;;;2073188;28;20562;-84
2021/06/03 04:31:27;;;;;;;1.60;1.30;;;18.80;68.60;;;;;;2085226;28;20025;-85
2021/06/03 04:32:28;;;;;;;2.22;1.45;;;18.90;68.00;;;;;;2072043;28;20018;-85
2021/06/03 04:33:29;;;;;;;2.20;1.60;;;18.80;68.00;;;;;;2044278;28;20479;-85
2021/06/03 04:34:29;;;;;;;2.38;1.55;;;18.90;68.10;;;;;;2066473;28;20089;-85
2021/06/03 04:35:30;;;;;;;2.45;1.60;;;18.90;68.10;;;;;;2081178;28;20518;-84
2021/06/03 04:36:31;;;;;;;2.05;1.55;;;18.90;68.20;;;;;;2083080;28;20045;-85
2021/06/03 04:37:31;;;;;;;2.05;1.38;;;18.90;68.10;;;;;;2068260;28;20572;-85
2021/06/03 04:38:32;;;;;;;1.77;1.42;;;18.90;68.10;;;;;;2062344;28;20136;-85
2021/06/03 04:39:33;;;;;;;2.40;1.50;;;18.90;68.20;;;;;;2077279;28;20041;-85
2021/06/03 04:40:34;;;;;;;1.95;1.30;;;18.90;68.20;;;;;;2069650;28;20030;-85
2021/06/03 04:41:34;;;;;;;2.53;1.40;;;19.00;68.20;;;;;;2064203;28;20049;-85
2021/06/03 04:42:35;;;;;;;2.83;1.40;;;19.00;68.20;;;;;;2064552;28;20022;-85
2021/06/03 04:43:37;;;;;;;2.25;1.35;;;19.00;68.20;;;;;;2064209;28;20030;-85
2021/06/03 04:44:38;;;;;;;2.55;1.60;;;19.10;68.20;;;;;;2064342;28;20046;-85
2021/06/03 04:45:38;;;;;;;2.85;1.70;;;19.00;68.10;;;;;;2046744;28;20513;-85
2021/06/03 04:46:40;;;;;;;2.83;1.55;;;19.00;68.00;;;;;;2062969;28;20451;-85
2021/06/03 04:47:42;;;;;;;2.38;1.60;;;19.10;68.10;;;;;;2078380;28;20572;-85
2021/06/03 04:48:43;;;;;;;2.58;1.67;;;19.10;68.10;;;;;;2076686;28;20618;-85
2021/06/03 04:49:44;;;;;;;2.00;1.48;;;19.10;68.00;;;;;;2065942;28;20615;-85
2021/06/03 04:50:46;;;;;;;2.47;1.63;;;19.20;68.00;;;;;;2056949;28;20038;-85
2021/06/03 04:51:46;;;;;;;2.38;1.50;;;19.20;67.90;;;;;;2057116;28;20125;-85
2021/06/03 04:52:48;;;;;;;2.72;1.63;;;19.20;67.90;;;;;;2064596;28;20404;-85
2021/06/03 04:53:49;;;;;;;2.38;1.60;;;19.30;68.00;;;;;;2072276;28;20026;-85
2021/06/03 04:54:49;;;;;;;2.08;1.35;;;19.40;68.00;;;;;;2062483;28;20054;-86
2021/06/03 04:55:50;;;;;;;3.10;1.30;;;19.40;67.90;;;;;;2056998;28;20170;-85
2021/06/03 04:56:51;;;;;;;2.40;1.60;;;19.40;68.50;;;;;;2058969;28;20102;-85
2021/06/03 04:57:54;;;;;;;2.72;1.60;;;19.40;67.80;;;;;;2065597;28;20163;-84
2021/06/03 04:58:55;;;;;;;2.03;1.50;;;19.50;67.80;;;;;;2077212;28;20112;-85
2021/06/03 04:59:55;;;;;;;2.05;1.40;;;19.50;67.80;;;;;;2076343;28;20085;-85
2021/06/03 05:00:56;;;;;;;1.98;1.45;;;19.50;67.70;;;;;;2067740;28;20113;-85
2021/06/03 05:01:57;;;;;;;2.15;1.60;;;19.50;67.70;;;;;;2071331;28;20403;-85
2021/06/03 05:02:59;;;;;;;2.72;1.50;;;19.50;67.70;;;;;;2079357;28;20523;-85
2021/06/03 05:04:00;;;;;;;1.92;1.55;;;19.60;67.80;;;;;;2080992;28;20038;-85
2021/06/03 05:05:01;;;;;;;2.10;1.42;;;19.60;67.80;;;;;;2064531;28;20042;-85
2021/06/03 05:06:03;;;;;;;2.17;1.58;;;19.60;67.80;;;;;;2069658;28;20499;-85
2021/06/03 05:07:04;;;;;;;1.92;1.40;;;19.60;67.80;;;;;;2063245;28;20476;-85
2021/06/03 05:08:05;;;;;;;2.33;1.50;;;19.60;67.80;;;;;;2068297;28;20120;-85
2021/06/03 05:09:06;;;;;;;1.98;1.48;;;19.60;67.90;;;;;;2070384;28;20046;-85
2021/06/03 05:10:07;;;;;;;2.67;1.52;;;19.70;67.90;;;;;;2055601;28;20508;-86
2021/06/03 05:11:08;;;;;;;2.28;1.50;;;19.70;67.90;;;;;;2056899;28;20138;-85
2021/06/03 05:12:09;;;;;;;2.70;1.60;;;19.70;67.90;;;;;;2062075;28;20133;-85
2021/06/03 05:13:10;;;;;;;2.65;1.52;;;19.70;67.90;;;;;;2058041;28;20070;-86
2021/06/03 05:14:10;;;;;;;3.47;1.92;;;19.70;67.90;;;;;;2064118;28;20129;-85
2021/06/03 05:15:13;;;;;;;3.58;1.80;;;19.70;67.90;;;;;;2063388;28;20072;-85
2021/06/03 05:16:14;;;;;;;4.25;1.67;;;19.80;68.00;;;;;;2051569;28;20033;-85
2021/06/03 05:17:14;;;;;;;2.95;1.77;;;19.80;68.10;;;;;;2058614;28;20478;-86
2021/06/03 05:18:15;;;;;;;2.22;1.60;;;19.80;68.20;;;;;;2079548;28;20496;-85
2021/06/03 05:19:16;;;;;;;4.55;1.90;;;19.80;68.60;;;;;;2077864;28;20521;-85
2021/06/03 05:20:18;;;;;;;2.80;1.85;;;19.80;68.40;;;;;;2080196;28;20053;-85
2021/06/03 05:21:18;;;;;;;3.55;1.90;;;19.80;68.50;;;;;;2079757;28;20043;-85
2021/06/03 05:22:19;;;;;;;2.63;1.85;;;19.80;68.60;;;;;;2074003;28;20032;-84
2021/06/03 05:23:20;;;;;;;2.83;1.83;;;19.70;68.70;;;;;;2072987;28;20476;-85